Data for 02/22/2009

Time Sea-Level Adjusted Pressure Absolute Pressure Temperature Relative Humidity Dew Point   
(mb) (inHg) (mb) (inHg) (C) (F) (%) (C) (F)
00:05 1021 30.15 850 25.1 0.5 32.9 46 -9.9 14.2
00:10 1021 30.15 850 25.1 1.1 34 45 -9.6 14.7
00:15 1021 30.15 850 25.1 0.9 33.7 45 -9.8 14.3
00:20 1021 30.15 850 25.1 0.6 33.1 45 -10 13.9
00:25 1021 30.15 850 25.1 0.5 32.9 45 -10.2 13.6
00:30 1021 30.15 850 25.1 0.3 32.6 45 -10.3 13.5
00:35 1021 30.15 850 25.1 0.2 32.3 44 -10.6 12.9
00:40 1021 30.15 850 25.1 0.1 32.2 46 -10.1 13.9
00:45 1021 30.15 850 25.1 -0.1 31.8 45 -10.5 13
00:50 1021 30.15 850 25.1 0 32.1 46 -10.2 13.7
00:55 1021 30.15 850 25.1 -0 32 47 -10 14
01:00 1021 30.15 850 25.1 0.1 32.2 45 -10.3 13.4
01:05 1021 30.15 850 25.1 0.1 32.2 46 -10.3 13.4
01:10 1021 30.15 850 25.1 -0.1 31.8 48 -9.9 14.2
01:15 1021 30.15 850 25.1 -0.4 31.4 50 -9.5 14.9
01:20 1021 30.15 850 25.1 -0.5 31.1 48 -10.3 13.5
01:25 1021 30.15 850 25.1 -0.7 30.8 50 -9.8 14.4
01:30 1021 30.15 850 25.1 -1 30.3 51 -9.9 14.2
01:35 1021 30.15 850 25.1 -1.3 29.6 51 -10.3 13.4
01:40 1021 30.15 850 25.1 -1.2 29.9 50 -10.3 13.5
01:45 1021 30.15 850 25.1 -1.1 30.1 51 -9.9 14.1
01:50 1021 30.15 850 25.1 -1.2 29.9 53 -9.5 14.8
01:55 1021 30.15 850 25.1 -1.5 29.4 53 -9.9 14.2
02:00 1021 30.15 850 25.1 -1.3 29.6 53 -9.7 14.5
02:05 1021 30.15 850 25.1 -1.4 29.5 53 -9.9 14.3
02:10 1021 30.15 850 25.1 -1.4 29.4 53 -9.8 14.4
02:15 1021 30.15 850 25.1 -1.5 29.3 53 -9.8 14.3
02:20 1021 30.15 850 25.1 -1.5 29.2 53 -10 13.9
02:25 1021 30.15 850 25.1 -1.5 29.3 52 -10 14
02:30 1021 30.15 850 25.1 -1.5 29.3 53 -9.9 14.2
02:35 1021 30.15 850 25.1 -1.6 29.2 53 -9.9 14.2
02:40 1021 30.15 850 25.1 -1.6 29.2 53 -9.9 14.1
02:45 1021 30.15 850 25.1 -1.7 29 54 -9.9 14.2
02:50 1021 30.15 850 25.1 -1.8 28.7 54 -9.9 14.1
02:55 1021 30.15 850 25.1 -2 28.5 54 -10 14
03:00 1021 30.15 850 25.1 -2.1 28.3 54 -10.1 13.9
03:05 1021 30.15 850 25.1 -2.1 28.1 54 -10.3 13.5
03:10 1021 30.15 850 25.1 -2 28.4 53 -10.3 13.5
03:15 1021 30.15 850 25.1 -1.9 28.6 54 -10.1 13.9
03:20 1021 30.15 850 25.1 -1.8 28.7 52 -10.4 13.4
03:25 1021 30.15 850 25.1 -1.8 28.7 54 -10.1 13.9
03:30 1021 30.15 850 25.1 -2 28.4 51 -10.8 12.5
03:35 1021 30.15 850 25.1 -1.6 29.1 49 -10.9 12.3
03:40 1021 30.15 850 25.1 -1.7 29 50 -10.7 12.7
03:45 1021 30.15 850 25.1 -1.6 29.2 50 -10.7 12.7
03:50 1021 30.15 850 25.1 -1.5 29.4 51 -10.3 13.4
03:55 1021 30.15 850 25.1 -2 28.4 53 -10.3 13.5
04:00 1021 30.15 850 25.1 -2.2 28 54 -10.4 13.3
04:05 1021 30.15 850 25.1 -2.3 27.9 54 -10.4 13.4
04:10 1021 30.15 850 25.1 -2.4 27.7 54 -10.4 13.3
04:15 1021 30.15 850 25.1 -2.4 27.6 55 -10.4 13.3
04:20 1021 30.15 850 25.1 -2.4 27.7 54 -10.5 13.2
04:25 1021 30.15 850 25.1 -2.2 28 53 -10.5 13.2
04:30 1021 30.15 850 25.1 -2.3 27.9 55 -10.2 13.7
04:35 1021 30.15 850 25.1 -2.7 27.2 57 -10.1 13.9
04:40 1021 30.15 850 25.1 -3.5 25.7 59 -10.4 13.3
04:45 1021 30.15 850 25.1 -3.5 25.7 54 -11.6 11.1
04:50 1021 30.15 850 25.1 -2.5 27.5 53 -10.8 12.5
04:55 1021 30.15 850 25.1 -2.5 27.5 52 -11.1 12.1
05:00 1021 30.15 850 25.1 -2 28.4 50 -11.1 12.1
05:05 1021 30.15 850 25.1 -1.9 28.5 51 -10.7 12.7
05:10 1021 30.15 850 25.1 -2.4 27.7 54 -10.5 13
05:15 1021 30.15 850 25.1 -2.5 27.5 54 -10.6 13
05:20 1021 30.15 850 25.1 -2.6 27.4 54 -10.5 13
05:25 1021 30.15 850 25.1 -2.8 26.9 55 -10.5 13
05:30 1021 30.15 850 25.1 -2.9 26.9 56 -10.6 13
05:35 1021 30.15 850 25.1 -2.9 26.7 56 -10.6 13
05:40 1021 30.15 850 25.1 -3 26.7 55 -10.8 12.6
05:45 1021 30.15 850 25.1 -3 26.6 56 -10.6 12.9
05:50 1021 30.15 850 25.1 -3.3 26.1 57 -10.5 13.1
05:55 1021 30.15 850 25.1 -3.8 25.1 60 -10.5 13
06:00 1021 30.15 850 25.1 -3.3 26 54 -11.3 11.6
06:05 1021 30.15 850 25.1 -2.3 27.8 51 -11.2 11.9
06:10 1021 30.15 850 25.1 -2.1 28.2 53 -10.6 12.9
06:15 1021 30.15 850 25.1 -2.4 27.6 52 -10.9 12.4
06:20 1021 30.15 850 25.1 -2.4 27.6 53 -10.8 12.6
06:25 1021 30.15 850 25.1 -2.9 26.7 56 -10.6 13
06:30 1021 30.15 850 25.1 -3.5 25.8 57 -10.8 12.5
06:35 1021 30.15 850 25.1 -3.4 25.9 56 -11 12.2
06:40 1020 30.12 850 25.1 -2.8 27 54 -10.9 12.4
06:45 1020 30.12 850 25.1 -2.5 27.5 52 -11 12.1
06:50 1021 30.15 850 25.1 -2.4 27.7 52 -10.9 12.3
06:55 1021 30.15 850 25.1 -2.4 27.8 52 -10.9 12.3
07:00 1020 30.12 850 25.1 -2.1 28.1 50 -11.1 12
07:05 1020 30.12 850 25.1 -2.1 28.2 52 -10.7 12.7
07:10 1020 30.12 850 25.1 -2.3 27.8 52 -10.8 12.6
07:15 1020 30.12 850 25.1 -2.5 27.4 51 -11.4 11.6
07:20 1020 30.12 850 25.1 -2.7 27.1 53 -10.9 12.4
07:25 1020 30.12 850 25.1 -3.3 26 55 -11.2 11.8
07:30 1020 30.12 850 25.1 -3.6 25.5 54 -11.7 10.9
07:35 1020 30.12 850 25.1 -3.2 26.3 51 -12 10.3
07:40 1020 30.12 850 25.1 -2 28.4 47 -11.9 10.6
07:45 1021 30.15 850 25.1 -2 28.3 50 -11 12.1
07:50 1021 30.15 850 25.1 -1.9 28.6 50 -10.9 12.4
07:55 1021 30.15 850 25.1 -2 28.4 52 -10.6 12.8
08:00 1021 30.15 850 25.1 -2.6 27.3 55 -10.5 13
08:05 1021 30.15 850 25.1 -3.2 26.3 55 -11 12.2
08:10 1021 30.15 850 25.1 -2.5 27.5 48 -12.1 10.3
08:15 1021 30.15 850 25.1 -1.8 28.8 47 -11.7 10.9
08:20 1021 30.15 850 25.1 -2 28.5 49 -11.4 11.4
08:25 1021 30.15 850 25.1 -2 28.4 49 -11.2 11.8
08:30 1021 30.15 850 25.1 -2.1 28.2 50 -11.2 11.8
08:35 1021 30.15 850 25.1 -1.9 28.6 49 -11.3 11.6
08:40 1021 30.15 850 25.1 -1.5 29.3 49 -11 12.2
08:45 1021 30.15 850 25.1 -0.5 31 47 -10.4 13.2
08:50 1021 30.15 850 25.1 -0 32 46 -10.4 13.4
08:55 1021 30.15 850 25.1 0.3 32.6 46 -10 14.1
09:00 1021 30.15 850 25.1 -0.1 31.9 47 -10.1 13.8
09:05 1021 30.15 850 25.1 0.4 32.7 43 -10.8 12.6
09:10 1021 30.15 850 25.1 1.1 34 42 -10.4 13.3
09:15 1021 30.15 850 25.1 1.9 35.4 39 -10.5 13.1
09:20 1021 30.15 850 25.1 2.2 36 40 -10.1 13.8
09:25 1021 30.15 850 25.1 2.4 36.4 38 -10.5 13
09:30 1021 30.15 850 25.1 2.5 36.4 38 -10.5 13.2
09:35 1021 30.15 850 25.1 2.7 36.9 36 -10.8 12.6
09:40 1021 30.15 850 25.1 3.1 37.5 36 -10.7 12.8
09:45 1021 30.15 850 25.1 3.5 38.3 36 -10.3 13.4
09:50 1021 30.15 850 25.1 3.5 38.3 35 -10.5 13
09:55 1021 30.15 850 25.1 3.5 38.4 36 -10.2 13.7
10:00 1021 30.15 850 25.1 3.9 39 34 -10.7 12.7
10:05 1021 30.15 850 25.1 3.9 39 34 -10.4 13.2
10:10 1021 30.15 850 25.1 4.3 39.8 32 -10.9 12.4
10:15 1021 30.15 850 25.1 4.1 39.3 35 -9.9 14.1
10:20 1021 30.15 850 25.1 3.8 38.9 35 -10.3 13.4
10:25 1021 30.15 850 25.1 3.6 38.4 34 -10.8 12.6
10:30 1021 30.15 850 25.1 3.6 38.5 35 -10.3 13.4
10:35 1021 30.15 850 25.1 3.6 38.4 35 -10.4 13.3
10:40 1020 30.12 850 25.1 3.6 38.6 38 -9.4 15.2
10:45 1020 30.12 850 25.1 3.4 38.2 41 -8.7 16.3
10:50 1020 30.12 850 25.1 3.6 38.4 39 -9.1 15.6
10:55 1020 30.12 850 25.1 4.1 39.4 37 -9.2 15.4
11:00 1020 30.12 849 25.07 4.4 39.9 37 -9 15.9
11:05 1020 30.12 849 25.07 4.5 40.1 37 -9.1 15.5
11:10 1020 30.12 849 25.07 4.8 40.6 36 -9.2 15.5
11:15 1020 30.12 849 25.07 5 41 36 -9 15.8
11:20 1020 30.12 849 25.07 5.1 41.2 34 -9.4 15
11:25 1020 30.12 849 25.07 5.6 42.1 33 -9.5 14.9
11:30 1020 30.12 849 25.07 5.9 42.6 35 -8.5 16.6
11:35 1020 30.12 849 25.07 5.7 42.2 35 -8.6 16.4
11:40 1020 30.12 849 25.07 6 42.8 34 -8.9 16
11:45 1020 30.12 849 25.07 6.5 43.7 33 -8.8 16.2
11:50 1020 30.12 849 25.07 7.2 45 32 -8.4 16.8
11:55 1020 30.12 849 25.07 7.4 45.3 33 -7.8 18
12:00 1020 30.12 849 25.07 7.3 45.1 31 -8.7 16.4
12:05 1020 30.12 849 25.07 7.5 45.5 33 -7.9 17.7
12:10 1020 30.12 849 25.07 7.6 45.6 33 -7.7 18.1
12:15 1020 30.12 849 25.07 7.2 44.9 33 -7.9 17.7
12:20 1020 30.12 849 25.07 6.9 44.5 33 -8.2 17.3
12:25 1020 30.12 849 25.07 7.5 45.5 32 -8.1 17.4
12:30 1019 30.09 849 25.07 7.7 45.9 32 -7.9 17.7
12:35 1019 30.09 849 25.07 8.1 46.5 31 -7.9 17.8
12:40 1019 30.09 849 25.07 8.7 47.6 30 -8 17.6
12:45 1019 30.09 849 25.07 9.1 48.5 29 -7.8 18
12:50 1019 30.09 848 25.04 9.1 48.4 31 -7.3 18.8
12:55 1019 30.09 848 25.04 8.8 47.9 31 -7.4 18.7
13:00 1019 30.09 848 25.04 8.3 46.9 32 -7.5 18.5
13:05 1019 30.09 848 25.04 8.7 47.7 31 -7.5 18.5
13:10 1019 30.09 848 25.04 9 48.3 29 -8 17.6
13:15 1019 30.09 848 25.04 9.2 48.5 31 -7 19.4
13:20 1019 30.09 848 25.04 9 48.3 31 -7.4 18.8
13:25 1019 30.09 848 25.04 9.2 48.5 31 -7.2 19.1
13:30 1019 30.09 848 25.04 8.7 47.7 31 -7.4 18.6
13:35 1019 30.09 848 25.04 8.5 47.2 31 -7.8 17.9
13:40 1019 30.09 848 25.04 8.5 47.3 30 -8.1 17.5
13:45 1019 30.09 848 25.04 9.5 49 29 -7.9 17.9
13:50 1019 30.09 848 25.04 9.8 49.6 29 -7.6 18.4
13:55 1018 30.06 848 25.04 9.3 48.7 31 -7.2 19.1
14:00 1018 30.06 848 25.04 8.4 47.2 32 -7.4 18.8
14:05 1018 30.06 848 25.04 8.3 46.9 30 -8.1 17.4
14:10 1018 30.06 848 25.04 8.1 46.5 34 -6.9 19.5
14:15 1018 30.06 848 25.04 8 46.4 30 -8.5 16.7
14:20 1018 30.06 848 25.04 9.2 48.5 30 -7.7 18.1
14:25 1018 30.06 848 25.04 8.4 47.2 30 -8 17.7
14:30 1018 30.06 848 25.04 9.4 48.8 29 -7.9 17.8
14:35 1018 30.06 847 25.01 8.5 47.2 32 -7.3 18.8
14:40 1018 30.06 847 25.01 7.9 46.2 32 -7.8 17.9
14:45 1018 30.06 847 25.01 8.6 47.5 30 -8.1 17.4
14:50 1018 30.06 848 25.04 8.7 47.7 31 -7.5 18.5
14:55 1018 30.06 847 25.01 9.6 49.3 28 -8 17.6
15:00 1018 30.06 847 25.01 9.6 49.3 29 -7.7 18.1
15:05 1018 30.06 847 25.01 9 48.2 30 -7.8 17.9
15:10 1018 30.06 847 25.01 9.1 48.3 30 -7.6 18.2
15:15 1018 30.06 847 25.01 9.9 49.7 29 -7.2 19.1
15:20 1018 30.06 847 25.01 9.7 49.5 30 -7 19.3
15:25 1018 30.06 847 25.01 10.1 50.2 29 -7.1 19.2
15:30 1018 30.06 847 25.01 9.8 49.7 30 -7.1 19.2
15:35 1018 30.06 847 25.01 9.8 49.6 29 -7.5 18.6
15:40 1018 30.06 847 25.01 10 49.9 30 -6.9 19.6
15:45 1018 30.06 847 25.01 10.3 50.6 26 -8.2 17.3
15:50 1018 30.06 847 25.01 10.1 50.2 27 -8.1 17.3
15:55 1018 30.06 847 25.01 9.7 49.5 28 -8 17.7
16:00 1018 30.06 847 25.01 10.1 50.1 28 -7.5 18.6
16:05 1018 30.06 847 25.01 10.2 50.3 29 -6.9 19.6
16:10 1018 30.06 847 25.01 9.9 49.8 29 -7.5 18.5
16:15 1018 30.06 847 25.01 10 50.1 29 -7.1 19.2
16:20 1018 30.06 847 25.01 10.2 50.3 28 -7.5 18.6
16:25 1018 30.06 847 25.01 10.2 50.4 29 -7 19.4
16:30 1018 30.06 847 25.01 9.5 49.2 31 -6.9 19.6
16:35 1018 30.06 847 25.01 9.1 48.3 33 -6.5 20.2
16:40 1018 30.06 847 25.01 9 48.1 33 -6.6 20.2
16:45 1018 30.06 847 25.01 8.8 47.8 32 -6.9 19.7
16:50 1017 30.03 847 25.01 8.8 47.8 33 -6.6 20.1
16:55 1017 30.03 847 25.01 8.5 47.3 37 -5.4 22.2
17:00 1017 30.03 847 25.01 7.7 45.9 42 -4.4 24.1
17:05 1017 30.03 847 25.01 7.5 45.5 40 -5.4 22.4
17:10 1017 30.03 847 25.01 7.5 45.5 39 -5.4 22.2
17:15 1017 30.03 846 24.98 7.8 46 36 -6.2 20.8
17:20 1017 30.03 847 25.01 8 46.3 35 -6.5 20.4
17:25 1017 30.03 846 24.98 7.8 46 36 -6.4 20.5
17:30 1017 30.03 846 24.98 7.4 45.3 38 -6.1 21
17:35 1017 30.03 846 24.98 7.3 45.2 38 -6 21.1
17:40 1017 30.03 846 24.98 6.9 44.5 40 -5.7 21.7
17:45 1017 30.03 846 24.98 6.7 44 41 -5.7 21.7
17:50 1017 30.03 846 24.98 6.8 44.3 40 -5.7 21.8
17:55 1017 30.03 846 24.98 7 44.7 40 -5.5 22
18:00 1017 30.03 846 24.98 6.6 43.9 42 -5.4 22.3
18:05 1017 30.03 846 24.98 6.3 43.4 43 -5.3 22.5
18:10 1017 30.03 846 24.98 6.1 43 43 -5.7 21.8
18:15 1017 30.03 846 24.98 6.3 43.4 41 -5.9 21.5
18:20 1017 30.03 846 24.98 6.3 43.3 42 -5.6 21.9
18:25 1017 30.03 846 24.98 6 42.9 42 -5.8 21.6
18:30 1017 30.03 846 24.98 6 42.9 42 -5.8 21.5
18:35 1017 30.03 847 25.01 6 42.7 45 -5 23
18:40 1017 30.03 846 24.98 6.1 43 41 -6.3 20.6
18:45 1017 30.03 846 24.98 5.8 42.5 43 -5.9 21.4
18:50 1017 30.03 846 24.98 5.5 41.9 43 -6.2 20.9
18:55 1017 30.03 846 24.98 5.6 42 41 -6.6 20
19:00 1017 30.03 846 24.98 5.7 42.2 41 -6.5 20.2
19:05 1017 30.03 846 24.98 5.7 42.3 40 -6.8 19.8
19:10 1017 30.03 846 24.98 5.9 42.7 40 -6.7 20
19:15 1017 30.03 846 24.98 5.8 42.4 42 -6.2 20.9
19:20 1017 30.03 846 24.98 5.5 41.9 42 -6.5 20.4
19:25 1017 30.03 846 24.98 5.5 41.9 41 -6.7 20
19:30 1017 30.03 846 24.98 5.6 42.1 40 -7 19.4
19:35 1017 30.03 846 24.98 5.8 42.5 38 -7.4 18.8
19:40 1017 30.03 846 24.98 6 42.8 38 -7.3 18.9
19:45 1017 30.03 846 24.98 6.2 43.1 37 -7.4 18.6
19:50 1017 30.03 846 24.98 6.2 43.2 37 -7.4 18.7
19:55 1017 30.03 846 24.98 6.1 43 38 -7.3 18.8
20:00 1017 30.03 846 24.98 6 42.7 38 -7.2 19
20:05 1017 30.03 846 24.98 5.9 42.7 38 -7.5 18.6
20:10 1017 30.03 846 24.98 5.9 42.7 39 -6.9 19.5
20:15 1017 30.03 846 24.98 5.7 42.3 38 -7.4 18.6
20:20 1017 30.03 846 24.98 5.9 42.5 39 -7.2 19
20:25 1017 30.03 846 24.98 5.8 42.5 39 -7.2 19.1
20:30 1016 30 846 24.98 5.8 42.4 39 -7.2 19
20:35 1016 30 846 24.98 5.7 42.2 40 -6.9 19.6
20:40 1016 30 846 24.98 5.5 41.9 41 -6.6 20.1
20:45 1016 30 846 24.98 5.4 41.8 41 -6.9 19.6
20:50 1016 30 846 24.98 5.5 41.9 40 -7 19.5
20:55 1016 30 846 24.98 5.6 42.1 40 -7.1 19.2
21:00 1016 30 846 24.98 5.7 42.3 40 -6.9 19.6
21:05 1016 30 846 24.98 5.7 42.2 40 -6.7 19.9
21:10 1016 30 846 24.98 5.6 42 42 -6.4 20.6
21:15 1016 30 846 24.98 5.4 41.8 42 -6.6 20.1
21:20 1016 30 846 24.98 5.5 41.8 43 -6 21.1
21:25 1016 30 846 24.98 5.2 41.4 42 -6.6 20.1
21:30 1016 30 846 24.98 5.4 41.6 42 -6.5 20.2
21:35 1016 30 846 24.98 5.5 42 43 -6.1 21.1
21:40 1016 30 846 24.98 5.6 42 42 -6.5 20.3
21:45 1016 30 846 24.98 5.8 42.4 43 -5.9 21.4
21:50 1016 30 846 24.98 5.6 42 43 -6 21.2
21:55 1016 30 846 24.98 5.6 42.2 42 -6.4 20.5
22:00 1016 30 846 24.98 5.9 42.7 40 -6.5 20.2
22:05 1016 30 846 24.98 6 42.9 40 -6.4 20.5
22:10 1016 30 846 24.98 6 42.9 37 -7.5 18.5
22:15 1016 30 846 24.98 6.6 43.8 38 -6.7 20
22:20 1016 30 846 24.98 6.1 43 40 -6.5 20.3
22:25 1016 30 846 24.98 6 42.7 40 -6.6 20.1
22:30 1017 30.03 846 24.98 6 42.8 40 -6.7 19.9
22:35 1017 30.03 846 24.98 6.2 43.1 40 -6.3 20.6
22:40 1017 30.03 846 24.98 5.8 42.4 42 -6 21.2
22:45 1017 30.03 846 24.98 5.6 42.1 42 -6.2 20.9
22:50 1017 30.03 846 24.98 5.9 42.6 42 -6.2 20.9
22:55 1017 30.03 846 24.98 5.9 42.6 38 -7.3 18.9
23:00 1017 30.03 846 24.98 6.6 43.9 33 -8.4 16.9
23:05 1017 30.03 846 24.98 7.1 44.8 37 -6.5 20.3
23:10 1017 30.03 846 24.98 7 44.6 38 -6.3 20.6
23:15 1017 30.03 846 24.98 7.1 44.7 39 -6.1 21
23:20 1017 30.03 846 24.98 6.9 44.4 40 -5.8 21.6
23:25 1017 30.03 846 24.98 7.1 44.8 38 -6.2 20.8
23:30 1017 30.03 846 24.98 7.3 45.2 39 -5.6 21.9
23:35 1017 30.03 846 24.98 7.4 45.4 39 -5.8 21.6
23:40 1016 30 846 24.98 7.6 45.6 39 -5.6 21.9
23:45 1016 30 846 24.98 7.7 45.8 38 -5.7 21.7
23:50 1016 30 846 24.98 7.7 45.8 39 -5.3 22.4
23:55 1016 30 846 24.98 7.5 45.4 40 -5.4 22.4
24:00 1016 30 846 24.98 7.2 45 41 -5.3 22.5